Time;durP1;ratioP1;P1;durP2;ratioP2;P2;SDS_P1;SDS_P2;PMS_P1;PMS_P2;Temp;Humidity;BMP_temperature;BMP_pressure;BME280_temperature;BME280_humidity;BME280_pressure;Samples;Min_cycle;Max_cycle;Signal;HPM_P1;HPM_P2
2021/08/24 00:00:57;;;;;;;9.50;2.40;;;15.60;99.90;;;;;;5012523;28;20084;-85
2021/08/24 00:03:23;;;;;;;8.05;3.65;;;15.60;99.90;;;;;;5008780;28;20553;-85
2021/08/24 00:05:49;;;;;;;7.05;2.58;;;15.60;99.90;;;;;;5009778;28;20540;-84
2021/08/24 00:08:15;;;;;;;3.75;2.85;;;15.60;99.90;;;;;;5012439;28;20489;-84
2021/08/24 00:10:50;;;;;;;5.03;2.10;;;15.50;99.90;;;;;;4973495;28;1173869;-85
2021/08/24 00:13:17;;;;;;;2.65;2.30;;;15.60;99.90;;;;;;5011090;28;20321;-84
2021/08/24 00:15:43;;;;;;;4.35;1.88;;;15.50;99.90;;;;;;5013929;28;20026;-85
2021/08/24 00:18:11;;;;;;;3.05;2.50;;;15.50;99.90;;;;;;5011777;28;20089;-83
2021/08/24 00:20:38;;;;;;;6.18;2.35;;;15.50;99.90;;;;;;5014016;28;20477;-83
2021/08/24 00:23:07;;;;;;;6.22;2.42;;;15.40;99.90;;;;;;5003649;28;20445;-85
2021/08/24 00:25:34;;;;;;;5.25;2.80;;;15.40;99.90;;;;;;5010539;28;20433;-85
2021/08/24 00:28:00;;;;;;;4.10;2.20;;;15.40;99.90;;;;;;5007409;28;20386;-85
2021/08/24 00:30:26;;;;;;;5.90;2.75;;;15.40;99.90;;;;;;5009334;28;20045;-84
2021/08/24 00:32:51;;;;;;;7.32;2.22;;;15.40;99.90;;;;;;5012361;28;20014;-85
2021/08/24 00:35:17;;;;;;;4.35;2.03;;;15.40;99.90;;;;;;5007673;28;20386;-84
2021/08/24 00:37:43;;;;;;;5.78;2.28;;;15.40;99.90;;;;;;5010383;28;20037;-84
2021/08/24 00:40:10;;;;;;;4.10;2.65;;;15.30;99.90;;;;;;5008867;28;20045;-85
2021/08/24 00:42:37;;;;;;;2.85;2.00;;;15.30;99.90;;;;;;5011201;28;20389;-85
2021/08/24 00:45:08;;;;;;;2.97;1.97;;;15.30;99.90;;;;;;5010665;28;20092;-85
2021/08/24 00:47:34;;;;;;;3.80;2.40;;;15.30;99.90;;;;;;5010699;28;20478;-85
2021/08/24 00:50:18;;;;;;;3.03;2.47;;;15.30;99.90;;;;;;5012053;28;20422;-83
2021/08/24 00:52:46;;;;;;;5.32;2.53;;;15.30;99.90;;;;;;5013087;28;20061;-85
2021/08/24 00:55:14;;;;;;;10.07;2.22;;;15.30;99.90;;;;;;5010875;28;20076;-86
2021/08/24 00:57:40;;;;;;;2.88;2.25;;;15.30;99.90;;;;;;5007912;28;20038;-85
2021/08/24 01:00:07;;;;;;;5.15;2.38;;;15.20;99.90;;;;;;5012505;28;20085;-84
2021/08/24 01:02:32;;;;;;;3.63;2.83;;;15.20;99.90;;;;;;5009867;28;20036;-84
2021/08/24 01:04:58;;;;;;;6.63;2.45;;;15.10;99.90;;;;;;5013934;28;20105;-85
2021/08/24 01:07:35;;;;;;;5.40;2.83;;;15.10;99.90;;;;;;5015670;28;20030;-86
2021/08/24 01:10:19;;;;;;;5.75;2.42;;;15.10;99.90;;;;;;5019221;28;20053;-85
2021/08/24 01:13:06;;;;;;;3.33;2.75;;;15.10;99.90;;;;;;5011296;28;20048;-84
2021/08/24 01:15:38;;;;;;;8.35;2.17;;;15.10;99.90;;;;;;5015937;28;20030;-85
2021/08/24 01:18:18;;;;;;;4.43;2.20;;;15.00;99.90;;;;;;5013091;28;20033;-85
2021/08/24 01:21:21;;;;;;;2.70;2.40;;;15.00;99.90;;;;;;5016347;28;20033;-85
2021/08/24 01:23:49;;;;;;;2.53;2.28;;;15.00;99.90;;;;;;5016509;28;20022;-85
2021/08/24 01:26:18;;;;;;;;;;;15.00;99.90;;;;;;5012554;28;20033;-84
2021/08/24 01:29:30;;;;;;;5.28;3.08;;;15.00;99.90;;;;;;5010592;28;19909;-83
2021/08/24 01:32:20;;;;;;;6.25;2.78;;;15.00;99.90;;;;;;5011019;28;20479;-84
2021/08/24 01:35:25;;;;;;;4.80;2.55;;;14.90;99.90;;;;;;5010360;28;20532;-84
2021/08/24 01:38:10;;;;;;;7.93;2.22;;;14.90;99.90;;;;;;5015219;28;20034;-84
2021/08/24 01:40:43;;;;;;;3.33;2.50;;;14.90;99.90;;;;;;5012374;28;20076;-85
2021/08/24 01:43:13;;;;;;;6.53;3.30;;;14.80;99.90;;;;;;5014300;28;20051;-85
2021/08/24 01:45:48;;;;;;;3.35;2.40;;;14.80;99.90;;;;;;5013620;28;20439;-85
2021/08/24 01:48:20;;;;;;;12.40;2.97;;;14.80;99.90;;;;;;5013645;28;20131;-83
2021/08/24 01:51:11;;;;;;;4.80;3.55;;;14.80;99.90;;;;;;5013734;28;20092;-84
2021/08/24 01:53:49;;;;;;;8.48;2.67;;;14.80;99.90;;;;;;5013428;28;20125;-85
2021/08/24 01:56:20;;;;;;;7.10;3.17;;;14.70;99.90;;;;;;5012256;28;20045;-85
2021/08/24 01:59:14;;;;;;;5.00;3.35;;;14.70;99.90;;;;;;5015120;28;20084;-84
2021/08/24 02:01:50;;;;;;;4.07;2.67;;;14.70;99.90;;;;;;5022164;28;20080;-85
2021/08/24 02:04:23;;;;;;;3.80;2.65;;;14.70;99.90;;;;;;5015546;28;20061;-85
2021/08/24 02:06:49;;;;;;;4.88;2.78;;;14.70;99.90;;;;;;5014708;28;20030;-84
2021/08/24 02:09:26;;;;;;;3.95;2.95;;;14.70;99.90;;;;;;5011314;28;20033;-86
2021/08/24 02:11:53;;;;;;;5.07;3.75;;;14.70;99.90;;;;;;5013301;28;20049;-82
2021/08/24 02:14:19;;;;;;;3.08;2.72;;;14.60;99.90;;;;;;5023574;28;20109;-86
2021/08/24 02:16:48;;;;;;;4.30;2.67;;;14.60;99.90;;;;;;5015275;28;20029;-85
2021/08/24 02:19:21;;;;;;;6.82;3.65;;;14.60;99.90;;;;;;5015016;28;20180;-85
2021/08/24 02:22:02;;;;;;;4.90;3.17;;;14.60;99.90;;;;;;5025019;28;20499;-86
2021/08/24 02:24:35;;;;;;;3.55;2.83;;;14.60;99.90;;;;;;5013923;28;20029;-85
2021/08/24 02:27:04;;;;;;;5.50;3.08;;;14.50;99.90;;;;;;5043661;28;20026;-84
2021/08/24 02:29:30;;;;;;;6.80;3.35;;;14.50;99.90;;;;;;5034445;28;20033;-83
2021/08/24 02:31:59;;;;;;;6.85;3.20;;;14.50;99.90;;;;;;5034531;28;20061;-84
2021/08/24 02:34:27;;;;;;;6.93;3.28;;;14.40;99.90;;;;;;5031167;28;20045;-82
2021/08/24 02:37:07;;;;;;;3.63;2.80;;;14.40;99.90;;;;;;5033734;28;20010;-78
2021/08/24 02:40:07;;;;;;;7.78;3.92;;;14.40;99.90;;;;;;5033562;28;20010;-80
2021/08/24 02:42:47;;;;;;;11.10;3.67;;;14.40;99.90;;;;;;5034343;28;20040;-81
2021/08/24 02:45:22;;;;;;;8.02;3.63;;;14.30;99.90;;;;;;5036281;28;20018;-85
2021/08/24 02:47:49;;;;;;;5.63;3.78;;;14.30;99.90;;;;;;5020143;28;20087;-83
2021/08/24 02:50:15;;;;;;;8.60;3.38;;;14.20;99.90;;;;;;5024292;28;20035;-83
2021/08/24 02:52:40;;;;;;;6.38;3.38;;;14.30;99.90;;;;;;5018012;28;20171;-83
2021/08/24 02:55:08;;;;;;;4.68;3.10;;;14.20;99.90;;;;;;5017589;28;20471;-85
2021/08/24 02:57:34;;;;;;;6.25;3.50;;;14.20;99.90;;;;;;5012184;28;20037;-85
2021/08/24 02:59:59;;;;;;;4.90;3.35;;;14.30;99.90;;;;;;5011423;28;20117;-83
2021/08/24 03:02:25;;;;;;;10.55;3.53;;;14.20;99.90;;;;;;5010904;28;20117;-81
2021/08/24 03:04:51;;;;;;;7.00;4.32;;;14.30;99.90;;;;;;5013623;28;20022;-85
2021/08/24 03:10:12;;;;;;;12.43;5.05;;;14.30;99.90;;;;;;5012902;28;20065;-85
2021/08/24 03:12:54;;;;;;;8.43;3.75;;;14.30;99.90;;;;;;5011503;28;20568;-85
2021/08/24 03:15:45;;;;;;;5.85;4.30;;;14.30;99.90;;;;;;5008787;28;20014;-85
2021/08/24 03:18:17;;;;;;;9.20;4.07;;;14.30;99.90;;;;;;5021518;28;20360;-85
2021/08/24 03:20:46;;;;;;;8.35;4.68;;;14.30;99.90;;;;;;5014046;28;20022;-85
2021/08/24 03:23:14;;;;;;;10.45;4.00;;;14.20;99.90;;;;;;5010389;28;20483;-85
2021/08/24 03:25:44;;;;;;;;;;;14.20;99.90;;;;;;5015045;28;20037;-85
2021/08/24 03:28:19;;;;;;;8.32;4.22;;;14.20;99.90;;;;;;5003862;28;19909;-85
2021/08/24 03:30:45;;;;;;;9.80;3.85;;;14.20;99.90;;;;;;5009795;28;20095;-85
2021/08/24 03:33:12;;;;;;;7.53;3.83;;;14.20;99.90;;;;;;5014359;28;20064;-85
2021/08/24 03:35:38;;;;;;;5.40;4.25;;;14.20;99.90;;;;;;5006766;28;20394;-84
2021/08/24 03:38:05;;;;;;;9.60;5.13;;;14.20;99.90;;;;;;5012899;28;20045;-85
2021/08/24 03:40:32;;;;;;;11.57;4.95;;;14.20;99.90;;;;;;5000001;28;20034;-85
2021/08/24 03:42:57;;;;;;;6.00;3.95;;;14.20;99.90;;;;;;4995566;28;20026;-85
2021/08/24 03:45:23;;;;;;;7.78;5.13;;;14.30;99.90;;;;;;5011658;28;20505;-85
2021/08/24 03:47:49;;;;;;;6.18;4.00;;;14.30;99.90;;;;;;5007018;28;20026;-84
2021/08/24 03:50:15;;;;;;;8.38;4.53;;;14.30;99.90;;;;;;5011092;28;20038;-85
2021/08/24 03:52:40;;;;;;;9.18;5.15;;;14.30;99.90;;;;;;4999579;28;20121;-82
2021/08/24 03:55:07;;;;;;;10.52;4.53;;;14.30;99.90;;;;;;5013447;28;20564;-84
2021/08/24 03:57:33;;;;;;;11.05;4.63;;;14.30;99.90;;;;;;4993684;28;20379;-83
2021/08/24 03:59:58;;;;;;;7.90;4.50;;;14.30;99.90;;;;;;4996054;28;20045;-85
2021/08/24 04:02:25;;;;;;;13.52;4.88;;;14.30;99.90;;;;;;5003956;28;20026;-85
2021/08/24 04:04:51;;;;;;;9.93;4.93;;;14.30;99.90;;;;;;4997187;28;20022;-86
2021/08/24 04:07:17;;;;;;;6.53;4.47;;;14.30;99.90;;;;;;5003672;28;20489;-84
2021/08/24 04:09:43;;;;;;;12.77;5.07;;;14.30;99.90;;;;;;5009989;28;20037;-85
2021/08/24 04:12:09;;;;;;;8.88;5.32;;;14.30;99.90;;;;;;5000457;28;20382;-86
2021/08/24 04:14:35;;;;;;;8.77;4.47;;;14.30;99.90;;;;;;5014444;28;20091;-86
2021/08/24 04:17:00;;;;;;;7.85;5.07;;;14.40;99.90;;;;;;5013690;28;20022;-84
2021/08/24 04:19:26;;;;;;;13.52;5.05;;;14.40;99.90;;;;;;5013728;28;20061;-85
2021/08/24 04:21:52;;;;;;;12.90;5.03;;;14.30;99.90;;;;;;5004530;28;20033;-85
2021/08/24 04:24:17;;;;;;;10.70;4.90;;;14.30;99.90;;;;;;5010065;28;20446;-85
2021/08/24 04:26:43;;;;;;;13.07;4.93;;;14.30;99.90;;;;;;5010841;28;20065;-86
2021/08/24 04:29:09;;;;;;;9.40;4.97;;;14.30;99.90;;;;;;5009800;28;20026;-85
2021/08/24 04:31:38;;;;;;;10.35;4.97;;;14.30;99.90;;;;;;5011850;28;20032;-85
2021/08/24 04:34:05;;;;;;;8.70;4.85;;;14.40;99.90;;;;;;5009352;28;20033;-84
2021/08/24 04:36:31;;;;;;;10.52;5.55;;;14.40;99.90;;;;;;5010193;28;20052;-85
2021/08/24 04:38:56;;;;;;;9.25;4.40;;;14.40;99.90;;;;;;5013251;28;20030;-86
2021/08/24 04:41:22;;;;;;;10.80;4.93;;;14.40;99.90;;;;;;5012051;28;20037;-85
2021/08/24 04:43:48;;;;;;;9.60;4.72;;;14.40;99.90;;;;;;5010640;28;20030;-84
2021/08/24 04:46:13;;;;;;;9.23;4.15;;;14.40;99.90;;;;;;5006097;28;20013;-85
2021/08/24 04:48:39;;;;;;;7.18;4.35;;;14.40;99.90;;;;;;5011253;28;20059;-85
2021/08/24 04:51:05;;;;;;;8.18;4.65;;;14.40;99.90;;;;;;5013345;28;20049;-85
2021/08/24 04:53:30;;;;;;;7.70;3.72;;;14.50;99.90;;;;;;5010134;28;20073;-86
2021/08/24 04:55:57;;;;;;;10.50;4.60;;;14.40;99.90;;;;;;5010616;28;20042;-85
2021/08/24 04:58:22;;;;;;;7.32;4.63;;;14.40;99.90;;;;;;5009310;28;20026;-85
2021/08/24 05:00:48;;;;;;;17.42;5.40;;;14.40;99.90;;;;;;5007927;28;20019;-85
2021/08/24 05:03:14;;;;;;;16.23;4.43;;;14.40;99.90;;;;;;5011176;28;20038;-83
2021/08/24 05:05:40;;;;;;;7.80;5.18;;;14.50;99.90;;;;;;5006353;28;20032;-85
2021/08/24 05:08:05;;;;;;;8.65;4.00;;;14.50;99.90;;;;;;5002497;28;20124;-85
2021/08/24 05:10:31;;;;;;;8.05;4.95;;;14.50;99.90;;;;;;5005386;28;20065;-86
2021/08/24 05:12:59;;;;;;;6.93;4.05;;;14.60;99.90;;;;;;5006420;28;20038;-85
2021/08/24 05:15:25;;;;;;;12.30;4.68;;;14.60;99.90;;;;;;5009173;28;20022;-85
2021/08/24 05:20:35;;;;;;;6.30;4.05;;;14.60;99.90;;;;;;5010042;28;20033;-86
2021/08/24 05:23:01;;;;;;;13.32;4.35;;;14.70;99.90;;;;;;5004497;28;20022;-85
2021/08/24 05:25:28;;;;;;;6.60;4.28;;;14.70;99.90;;;;;;5012983;28;20080;-86
2021/08/24 05:27:54;;;;;;;10.27;4.80;;;14.70;99.90;;;;;;5007746;28;20034;-85
2021/08/24 05:30:23;;;;;;;10.68;5.07;;;14.70;99.90;;;;;;5001823;28;20030;-86
2021/08/24 05:32:50;;;;;;;7.15;4.15;;;14.80;99.90;;;;;;5010555;28;20489;-85
2021/08/24 05:35:17;;;;;;;11.00;4.57;;;14.80;99.90;;;;;;5013209;28;20636;-86
2021/08/24 05:37:43;;;;;;;9.52;5.05;;;14.80;99.90;;;;;;5009724;28;20134;-84
2021/08/24 05:40:10;;;;;;;15.18;5.25;;;14.80;99.90;;;;;;5010699;28;20131;-86
2021/08/24 05:42:36;;;;;;;7.63;4.07;;;14.80;99.90;;;;;;5008057;28;20101;-86
2021/08/24 05:45:03;;;;;;;13.18;4.70;;;14.90;99.90;;;;;;5006676;28;20641;-86
2021/08/24 05:47:29;;;;;;;10.68;4.78;;;14.90;99.90;;;;;;5012069;28;20026;-86
2021/08/24 05:49:55;;;;;;;13.55;4.82;;;15.00;99.90;;;;;;5012118;28;20037;-85
2021/08/24 05:52:21;;;;;;;9.20;4.60;;;15.10;99.90;;;;;;5018910;28;20033;-86
2021/08/24 05:54:47;;;;;;;11.80;5.05;;;15.10;99.90;;;;;;5006788;28;20026;-85
2021/08/24 05:57:16;;;;;;;16.10;5.10;;;15.00;99.90;;;;;;5014011;28;20030;-86
2021/08/24 05:59:42;;;;;;;13.18;4.43;;;15.10;99.90;;;;;;5008098;28;20033;-83
2021/08/24 06:02:08;;;;;;;11.60;4.25;;;15.10;99.90;;;;;;5011270;28;20108;-86
2021/08/24 06:04:34;;;;;;;8.60;4.63;;;15.10;99.90;;;;;;5018412;28;20435;-84
2021/08/24 06:07:00;;;;;;;14.77;5.20;;;15.20;99.90;;;;;;5013461;28;20115;-86
2021/08/24 06:09:26;;;;;;;11.07;4.90;;;15.20;99.90;;;;;;5006794;28;20022;-86
2021/08/24 06:11:52;;;;;;;8.55;5.10;;;15.30;99.90;;;;;;5015647;28;20042;-85
2021/08/24 06:14:20;;;;;;;16.70;5.97;;;15.30;99.90;;;;;;5015608;28;20021;-87
2021/08/24 06:16:46;;;;;;;;;;;15.40;99.90;;;;;;5016837;28;20510;-85
2021/08/24 06:19:11;;;;;;;8.68;4.78;;;15.40;99.90;;;;;;5007988;28;19909;-85
2021/08/24 06:21:38;;;;;;;12.93;4.70;;;15.40;99.90;;;;;;5022898;28;20050;-84
2021/08/24 06:24:07;;;;;;;9.68;5.25;;;15.50;99.90;;;;;;5034236;28;20042;-85
2021/08/24 06:26:33;;;;;;;10.90;4.55;;;15.60;99.90;;;;;;5030611;28;20109;-80
2021/08/24 06:28:59;;;;;;;9.80;4.93;;;15.70;99.90;;;;;;5027893;28;20031;-82
2021/08/24 06:31:27;;;;;;;7.55;5.43;;;15.70;99.90;;;;;;5028592;28;20078;-78
2021/08/24 06:33:53;;;;;;;11.48;4.45;;;15.80;99.90;;;;;;5040774;28;20133;-84
2021/08/24 06:36:20;;;;;;;15.75;5.82;;;15.80;99.90;;;;;;5045687;28;20045;-86
2021/08/24 06:38:47;;;;;;;12.00;4.50;;;15.90;99.90;;;;;;5041960;28;20041;-80
2021/08/24 06:41:13;;;;;;;8.02;4.80;;;16.00;99.90;;;;;;5036246;28;20014;-86
2021/08/24 06:43:39;;;;;;;8.25;3.92;;;16.10;99.90;;;;;;5035749;28;20101;-84
2021/08/24 06:46:05;;;;;;;11.65;5.22;;;16.10;99.90;;;;;;5030600;28;20017;-86
2021/08/24 06:48:31;;;;;;;14.50;5.07;;;16.20;99.90;;;;;;5038185;28;20054;-78
2021/08/24 06:50:57;;;;;;;22.85;4.63;;;16.20;99.90;;;;;;5060739;28;20046;-79
2021/08/24 06:53:23;;;;;;;15.38;4.93;;;16.20;99.90;;;;;;5043277;28;20041;-81
2021/08/24 06:55:49;;;;;;;9.40;4.70;;;16.20;99.90;;;;;;5043407;28;20014;-85
2021/08/24 06:58:15;;;;;;;9.68;4.80;;;16.30;99.90;;;;;;5043099;28;20022;-82
2021/08/24 07:00:44;;;;;;;11.90;4.20;;;16.40;99.90;;;;;;5024017;28;20048;-79
2021/08/24 07:03:10;;;;;;;13.00;4.18;;;16.50;99.90;;;;;;5018896;28;20029;-83
2021/08/24 07:05:36;;;;;;;9.68;4.05;;;16.50;99.90;;;;;;5012535;28;20390;-85
2021/08/24 07:08:02;;;;;;;10.82;4.88;;;16.60;99.90;;;;;;5016172;28;20034;-84
2021/08/24 07:10:39;;;;;;;14.10;4.20;;;16.70;99.90;;;;;;4999163;28;20057;-85
2021/08/24 07:13:08;;;;;;;8.05;3.22;;;16.80;99.90;;;;;;5008070;28;20022;-84
2021/08/24 07:15:40;;;;;;;13.43;4.53;;;16.90;99.90;;;;;;4998528;28;20046;-85
2021/08/24 07:18:06;;;;;;;6.03;3.50;;;17.00;99.90;;;;;;5017070;28;20038;-85
2021/08/24 07:20:32;;;;;;;8.23;3.97;;;17.10;99.90;;;;;;5009360;28;20026;-85
2021/08/24 07:23:02;;;;;;;7.38;2.97;;;17.10;99.90;;;;;;4996761;28;20030;-85
2021/08/24 07:25:36;;;;;;;9.23;3.85;;;17.00;99.90;;;;;;5029811;28;20030;-82
2021/08/24 07:28:02;;;;;;;5.13;3.33;;;17.10;99.90;;;;;;5019586;28;20069;-84
2021/08/24 07:30:28;;;;;;;12.40;4.28;;;17.00;99.90;;;;;;5018434;28;20125;-86
2021/08/24 07:32:54;;;;;;;4.30;3.45;;;17.00;99.90;;;;;;5009191;28;20060;-86
2021/08/24 07:35:19;;;;;;;5.78;3.40;;;17.00;99.90;;;;;;5010643;28;20014;-87
2021/08/24 07:37:45;;;;;;;8.75;3.50;;;17.10;99.90;;;;;;5009554;28;20295;-84
2021/08/24 07:40:11;;;;;;;8.73;3.63;;;17.10;99.90;;;;;;5012019;28;20185;-85
2021/08/24 07:42:37;;;;;;;7.63;3.60;;;17.10;99.90;;;;;;5006395;28;20029;-84
2021/08/24 07:45:04;;;;;;;6.70;3.40;;;17.10;99.90;;;;;;5006011;28;20486;-85
2021/08/24 07:47:29;;;;;;;5.95;3.08;;;17.20;99.90;;;;;;5010076;28;20030;-82
2021/08/24 07:49:55;;;;;;;10.95;3.83;;;17.20;99.90;;;;;;5017669;28;20069;-83
2021/08/24 07:52:21;;;;;;;9.20;3.67;;;17.30;99.90;;;;;;5013315;28;20363;-83
2021/08/24 07:54:46;;;;;;;8.20;3.80;;;17.30;99.90;;;;;;5011844;28;20034;-81
2021/08/24 07:57:12;;;;;;;7.22;3.88;;;17.20;99.90;;;;;;5013487;28;20466;-78
2021/08/24 07:59:38;;;;;;;8.68;4.30;;;17.20;99.90;;;;;;5013302;28;20410;-83
2021/08/24 08:02:04;;;;;;;5.60;3.60;;;17.20;99.90;;;;;;5006404;28;20026;-77
2021/08/24 08:04:30;;;;;;;5.20;4.10;;;17.30;99.90;;;;;;5025942;28;20076;-81
2021/08/24 08:06:56;;;;;;;9.30;3.40;;;17.40;99.90;;;;;;5010642;28;20026;-79
2021/08/24 08:09:21;;;;;;;6.68;3.45;;;17.50;99.90;;;;;;5013217;28;20061;-81
2021/08/24 08:11:49;;;;;;;9.82;3.90;;;17.60;99.90;;;;;;5009404;28;20482;-81
2021/08/24 08:14:16;;;;;;;3.88;3.20;;;17.60;99.90;;;;;;5000557;28;20385;-79
2021/08/24 08:16:42;;;;;;;8.13;3.10;;;17.60;99.90;;;;;;5008730;28;20034;-78
2021/08/24 08:19:08;;;;;;;6.53;3.00;;;17.70;99.90;;;;;;5009359;28;20433;-77
2021/08/24 08:21:36;;;;;;;6.20;3.45;;;17.60;99.90;;;;;;5009613;28;20047;-78
2021/08/24 08:24:03;;;;;;;9.05;3.17;;;17.60;99.90;;;;;;5005372;28;20087;-77
2021/08/24 08:26:30;;;;;;;5.05;3.17;;;17.60;99.90;;;;;;4993329;28;20523;-78
2021/08/24 08:28:55;;;;;;;8.23;3.30;;;17.60;99.90;;;;;;4997530;28;20077;-78
2021/08/24 08:31:22;;;;;;;5.43;2.85;;;17.60;99.90;;;;;;5022036;28;20073;-76
2021/08/24 08:33:48;;;;;;;11.20;3.58;;;17.50;99.90;;;;;;4999693;28;20018;-80
2021/08/24 08:36:14;;;;;;;9.63;3.38;;;17.60;99.90;;;;;;4996703;28;20038;-79
2021/08/24 08:38:40;;;;;;;14.73;4.03;;;17.60;99.90;;;;;;5008224;28;20509;-81
2021/08/24 08:41:19;;;;;;;6.68;3.35;;;17.60;99.90;;;;;;5012159;28;20132;-81
2021/08/24 08:43:57;;;;;;;5.68;3.17;;;17.70;99.90;;;;;;4995500;28;20034;-79
2021/08/24 08:46:40;;;;;;;3.80;3.10;;;17.90;99.90;;;;;;5006438;28;20499;-80
2021/08/24 08:49:24;;;;;;;4.63;2.92;;;18.10;99.90;;;;;;4998799;28;20034;-80
2021/08/24 08:52:20;;;;;;;9.00;4.78;;;18.10;99.90;;;;;;5013575;28;20041;-80
2021/08/24 08:55:02;;;;;;;6.65;3.28;;;18.00;99.90;;;;;;5000471;28;20456;-80
2021/08/24 08:57:50;;;;;;;8.48;3.65;;;18.00;99.90;;;;;;5012473;28;20034;-80
2021/08/24 09:00:25;;;;;;;8.30;3.67;;;18.00;99.90;;;;;;5010257;28;20042;-80
2021/08/24 09:03:00;;;;;;;11.05;4.53;;;18.20;99.90;;;;;;4997333;28;20109;-80
2021/08/24 09:05:27;;;;;;;4.85;2.78;;;18.40;99.90;;;;;;5004237;28;20128;-79
2021/08/24 09:07:56;;;;;;;5.95;2.85;;;18.70;99.90;;;;;;5000865;28;20479;-80
2021/08/24 09:10:45;;;;;;;10.32;4.47;;;18.80;99.90;;;;;;4992513;28;20047;-80
2021/08/24 09:13:14;;;;;;;3.67;2.97;;;18.60;99.90;;;;;;5005684;28;20049;-80
2021/08/24 09:15:45;;;;;;;6.40;2.65;;;18.40;99.90;;;;;;5012540;28;20030;-80
2021/08/24 09:18:21;;;;;;;8.70;2.83;;;18.40;99.90;;;;;;4995016;28;20435;-80
2021/08/24 09:20:59;;;;;;;4.38;2.30;;;18.60;99.90;;;;;;4994276;28;20517;-80
2021/08/24 09:23:25;;;;;;;6.40;2.67;;;19.00;99.90;;;;;;5011325;28;20027;-80
2021/08/24 09:26:15;;;;;;;2.75;1.67;;;19.60;99.90;;;;;;5008008;28;20390;-80
2021/08/24 09:28:41;;;;;;;6.68;2.35;;;20.00;99.90;;;;;;5001366;28;20467;-80
2021/08/24 09:31:20;;;;;;;4.07;2.00;;;20.40;99.90;;;;;;4997169;28;20105;-81
2021/08/24 09:33:46;;;;;;;8.48;2.10;;;20.40;99.90;;;;;;5014765;28;20032;-78
2021/08/24 09:36:12;;;;;;;6.45;2.03;;;20.30;99.90;;;;;;5028773;28;20113;-80
2021/08/24 09:38:50;;;;;;;7.82;1.90;;;20.20;99.90;;;;;;5030375;28;20060;-78
2021/08/24 09:41:20;;;;;;;2.10;1.90;;;20.40;99.90;;;;;;5027518;28;20041;-81
2021/08/24 09:43:47;;;;;;;4.00;2.38;;;20.50;99.90;;;;;;5021649;28;20109;-81
2021/08/24 09:46:15;;;;;;;2.92;1.90;;;20.40;99.90;;;;;;5033664;28;20465;-80
2021/08/24 09:49:07;;;;;;;6.90;2.05;;;20.40;99.90;;;;;;5028275;28;20452;-79
2021/08/24 09:51:45;;;;;;;2.00;1.50;;;20.50;99.90;;;;;;5013291;28;20030;-83
2021/08/24 09:54:31;;;;;;;3.17;1.85;;;20.50;99.90;;;;;;5032049;28;20083;-83
2021/08/24 09:57:04;;;;;;;9.15;1.55;;;20.50;99.90;;;;;;5027024;28;20491;-80
2021/08/24 09:59:38;;;;;;;3.15;1.80;;;20.70;99.90;;;;;;5014720;28;20057;-79
2021/08/24 10:02:05;;;;;;;6.13;2.17;;;20.90;99.90;;;;;;5019594;28;20029;-81
2021/08/24 10:04:48;;;;;;;4.50;2.00;;;21.10;99.90;;;;;;5010610;28;20503;-77
2021/08/24 10:07:29;;;;;;;4.70;1.48;;;20.90;99.90;;;;;;5019459;28;20029;-79
2021/08/24 10:09:58;;;;;;;3.65;1.60;;;21.30;99.90;;;;;;5012631;28;20021;-79
2021/08/24 10:12:33;;;;;;;4.03;2.00;;;21.40;99.90;;;;;;5014509;28;20101;-81
2021/08/24 10:14:58;;;;;;;4.85;1.77;;;21.30;99.90;;;;;;5009544;28;20052;-78
2021/08/24 10:17:34;;;;;;;5.97;1.85;;;21.30;99.90;;;;;;5025536;28;20029;-80
2021/08/24 10:20:22;;;;;;;6.00;2.00;;;21.50;99.90;;;;;;5000642;28;20030;-80
2021/08/24 10:22:50;;;;;;;3.80;1.70;;;21.60;99.90;;;;;;4997082;28;20038;-78
2021/08/24 10:25:26;;;;;;;2.67;1.70;;;21.70;99.90;;;;;;5012220;28;20034;-85
2021/08/24 10:28:06;;;;;;;4.53;2.00;;;21.50;99.90;;;;;;5010278;28;20152;-79
2021/08/24 10:30:46;;;;;;;7.32;3.20;;;21.40;99.90;;;;;;5006478;28;20022;-81
2021/08/24 10:33:38;;;;;;;4.50;3.10;;;21.70;99.90;;;;;;5012286;28;20038;-81
2021/08/24 10:36:29;;;;;;;5.35;1.75;;;21.70;99.90;;;;;;5013848;28;20656;-78
2021/08/24 10:39:04;;;;;;;3.50;1.63;;;21.50;99.90;;;;;;5010639;28;20085;-79
2021/08/24 10:41:36;;;;;;;5.13;1.85;;;21.40;99.90;;;;;;5007581;28;20034;-79
2021/08/24 10:44:13;;;;;;;6.90;1.92;;;21.70;99.90;;;;;;5004558;28;20026;-80
2021/08/24 10:46:53;;;;;;;;;;;21.70;99.90;;;;;;5000207;28;20407;-80
2021/08/24 10:49:19;;;;;;;4.88;1.98;;;21.70;99.90;;;;;;5004499;28;20003;-79
2021/08/24 10:52:18;;;;;;;4.32;2.10;;;21.40;99.90;;;;;;4994858;28;20113;-76
2021/08/24 10:55:03;;;;;;;4.20;1.58;;;21.20;99.90;;;;;;4995465;28;20034;-78
2021/08/24 10:57:38;;;;;;;5.13;1.50;;;21.10;99.90;;;;;;5014105;28;20022;-76
2021/08/24 11:00:22;;;;;;;3.72;1.70;;;21.10;99.90;;;;;;5004149;28;20053;-76
2021/08/24 11:03:07;;;;;;;4.57;1.45;;;21.10;99.90;;;;;;4995877;28;20391;-73
2021/08/24 11:06:00;;;;;;;7.80;1.80;;;21.30;99.90;;;;;;5013733;28;20076;-74
2021/08/24 11:08:51;;;;;;;3.92;1.80;;;21.40;99.90;;;;;;5001259;28;20395;-78
2021/08/24 11:11:42;;;;;;;7.75;1.63;;;21.00;99.90;;;;;;5003882;28;20509;-78
2021/08/24 11:14:24;;;;;;;4.75;1.90;;;21.10;99.90;;;;;;5018269;28;20078;-80
2021/08/24 11:17:03;;;;;;;5.15;1.63;;;21.20;99.90;;;;;;5006421;28;20066;-81
2021/08/24 11:20:12;;;;;;;3.38;1.98;;;21.40;99.90;;;;;;5007094;28;20026;-81
2021/08/24 11:23:19;;;;;;;7.03;2.78;;;21.40;99.90;;;;;;5000693;28;20117;-79
2021/08/24 11:25:56;;;;;;;5.85;1.90;;;21.40;99.90;;;;;;5003170;28;20033;-81
2021/08/24 11:28:39;;;;;;;2.85;1.40;;;21.60;99.90;;;;;;4997269;28;20122;-81
2021/08/24 11:31:22;;;;;;;4.32;1.88;;;21.80;99.90;;;;;;5012626;28;20330;-78
2021/08/24 11:34:04;;;;;;;4.13;1.70;;;21.80;99.90;;;;;;5019617;28;20034;-78
2021/08/24 11:36:32;;;;;;;4.95;2.92;;;21.50;99.90;;;;;;4996860;28;20041;-79
2021/08/24 11:39:05;;;;;;;2.40;2.20;;;21.40;99.90;;;;;;5001537;28;20038;-80
2021/08/24 11:41:30;;;;;;;2.55;1.73;;;21.30;99.90;;;;;;5018705;28;20093;-80
2021/08/24 11:43:56;;;;;;;2.08;1.33;;;21.30;99.90;;;;;;5026450;28;20037;-77
2021/08/24 11:46:45;;;;;;;5.38;1.63;;;21.50;99.90;;;;;;5022531;28;20053;-80
2021/08/24 11:49:20;;;;;;;3.47;1.65;;;21.70;99.90;;;;;;5027371;28;20037;-78
2021/08/24 11:51:55;;;;;;;2.75;1.48;;;21.70;99.90;;;;;;5026174;28;20119;-80
2021/08/24 11:54:36;;;;;;;3.97;2.00;;;21.50;99.90;;;;;;5017400;28;20022;-79
2021/08/24 11:57:18;;;;;;;4.47;1.75;;;21.40;99.90;;;;;;5030101;28;20025;-81
2021/08/24 11:59:47;;;;;;;3.25;1.83;;;21.70;99.90;;;;;;5040785;28;20022;-80
2021/08/24 12:02:18;;;;;;;1.70;1.60;;;21.70;99.90;;;;;;5026143;28;20057;-80
2021/08/24 12:04:45;;;;;;;7.93;1.38;;;21.30;99.90;;;;;;5029903;28;20046;-78
2021/08/24 12:07:27;;;;;;;3.65;1.50;;;21.20;99.90;;;;;;5030006;28;20483;-80
2021/08/24 12:09:54;;;;;;;5.20;1.75;;;21.20;99.90;;;;;;5027626;28;20030;-80
2021/08/24 12:12:49;;;;;;;2.90;1.77;;;21.00;99.90;;;;;;5029993;28;20038;-79
2021/08/24 12:15:33;;;;;;;2.60;1.65;;;21.00;99.90;;;;;;5035380;28;20052;-78
2021/08/24 12:18:17;;;;;;;2.92;1.85;;;21.40;99.90;;;;;;5029055;28;20045;-80
2021/08/24 12:20:58;;;;;;;5.25;1.25;;;21.80;99.90;;;;;;5036783;28;20036;-81
2021/08/24 12:23:39;;;;;;;3.65;1.88;;;21.90;99.90;;;;;;5030744;28;20685;-78
2021/08/24 12:26:34;;;;;;;6.65;1.90;;;22.10;99.90;;;;;;5034642;28;20010;-77
2021/08/24 12:29:34;;;;;;;2.55;1.42;;;22.20;99.90;;;;;;5036307;28;20026;-79
2021/08/24 12:32:08;;;;;;;2.95;1.75;;;22.40;99.90;;;;;;5027961;28;20037;-79
2021/08/24 12:34:33;;;;;;;3.33;1.40;;;22.60;99.90;;;;;;5035046;28;20006;-80
2021/08/24 12:37:00;;;;;;;1.25;1.15;;;22.60;99.90;;;;;;5036092;28;20026;-77
2021/08/24 12:39:40;;;;;;;2.67;1.52;;;22.50;99.90;;;;;;5035162;28;20041;-79
2021/08/24 12:42:22;;;;;;;3.55;2.08;;;22.40;99.90;;;;;;5030538;28;20094;-77
2021/08/24 12:44:57;;;;;;;1.85;1.48;;;22.00;99.90;;;;;;5033255;28;20011;-81
2021/08/24 12:47:32;;;;;;;2.22;1.23;;;21.90;99.90;;;;;;5049269;28;20022;-80
2021/08/24 12:50:08;;;;;;;5.25;1.58;;;22.10;99.90;;;;;;5034911;28;20034;-78
2021/08/24 12:52:40;;;;;;;3.00;1.40;;;22.40;99.90;;;;;;5031450;28;20006;-78
2021/08/24 12:55:12;;;;;;;1.88;1.55;;;22.20;99.90;;;;;;5035187;28;20033;-78
2021/08/24 12:57:42;;;;;;;3.58;1.40;;;22.00;99.90;;;;;;5034239;28;20058;-79
2021/08/24 13:00:21;;;;;;;4.20;1.42;;;21.70;99.90;;;;;;5035118;28;20022;-79
2021/08/24 13:03:14;;;;;;;2.53;1.45;;;21.50;99.90;;;;;;5044324;28;20054;-80
2021/08/24 13:05:39;;;;;;;2.20;1.30;;;21.70;99.90;;;;;;5040855;28;20014;-79
2021/08/24 13:08:09;;;;;;;3.50;1.70;;;21.80;99.90;;;;;;5035409;28;20508;-77
2021/08/24 13:10:43;;;;;;;4.93;2.08;;;21.60;99.90;;;;;;5021266;28;20046;-78
2021/08/24 13:13:28;;;;;;;4.53;2.22;;;21.40;99.90;;;;;;5018045;28;20390;-78
2021/08/24 13:15:57;;;;;;;5.82;1.50;;;21.50;99.90;;;;;;5019473;28;20026;-78